Fort Neal, West Virginia
Current Conditions -  °F | °C
As of 7:17 AM on Friday 24 Oct 2014 (Local Time) from KPKB Reporting Station
Moderate Fog Moderate Fog  
Wind Chill: 37°   Ceiling: 100
Heat Index: 37°   Visibility: 0.25mi
Dew Point: 36°   Wind: 0mph
Humidity: 96%   Direction: NA
Pressure: 30.15"   Gusts: NA
Location:  39.2652°N, 81.5633°W
Report Text: KPKB 241117Z 00000KT 1/4SM R03/1200FT FG VV001 03/02 A3015 RMK AO2 T00280022
Loading
Personal Weather Stations






























Interactive Weather Map
Tropical Storm Tracking
New forecast layout! Learn more

10-Day Weather Forecast

Advertisements
Track Severe Weather on mobile